Pagrindinis puslapis
METAR-TAF:

METAR-TAF

Oro uostai :

Karakasas, Venesuela

platuma: 10-36N, ilguma: 066-59W, Aukštis: 43 m

Dabartinis oras

Ataskaita buvo paskelbta 1 valandą ir 8 minutes, ne 08:02 UTC
Vėjas 7 kt iš Šiaurės Rytų
Temperatūra
Slėgis 1010 hPa

METAR: SVMI 210802Z AUTO 04007KT NCD ///// Q1010

Laikas: 05:10 (09:10 UTC)

Prognozė

Ataskaita buvo paskelbta 5 valandos ir 10 minutes, ne 04:00 UTC
Prognozė galioja nuo 21 metu 06 UTC su 22 metu 06 UTC
Vėjas 6 kt iš Rytų/Šiaurės Rytų
Matomumas: 9000 m
Su prošvaistėmis ne aukštis 1600 ft
dulksna
Tapsmas
nuo 21 metu 06 UTC su 21 metu 10 UTC
Vėjas 5 kt iš Rytų
Matomumas: 8000 m
Apsiniaukę ne aukštis 1600 ft
lietus

TAF: SVMI 210400Z 2106/2206 06006KT 9000 -DZ BKN016 TX31/2119Z TN23/2107Z BECMG 2106/2110 08005KT 8000 RA OVC016

Orai ataskaitas ir orų prognozės (METAR, TAF).

turimą stotys yra geltonos ir raudonos taškus žemėlapyje.

Perkelti pele per norėdami pamatyti stoties vardą.

Tada spustelėkite, norėdami matyti oro stebėjimo ir prognozės.

Norėdami pakeisti žemėlapį: spustelėkite ant žalios mygtukų su juodo kryžiaus žemyn,; žalią mygtuką su brūkšneliu, jei norite nutolinti; arba žalių rodyklių gretimoms žemėlapius.


METAR-TAF: